Time;durP1;ratioP1;P1;durP2;ratioP2;P2;SDS_P1;SDS_P2;PMS_P1;PMS_P2;Temp;Humidity;BMP_temperature;BMP_pressure;BME280_temperature;BME280_humidity;BME280_pressure;Samples;Min_cycle;Max_cycle;Signal;HPM_P1;HPM_P2
2023/06/26 00:02:00;;;;;;;10.30;7.70;;;;;;;17.84;100.00;100645.40;107053;1244;74764;-67
2023/06/26 00:04:29;;;;;;;10.50;7.50;;;;;;;17.83;100.00;100643.25;107081;1254;63432;-66
2023/06/26 00:06:58;;;;;;;9.90;8.00;;;;;;;17.79;100.00;100643.44;107075;1256;60318;-66
2023/06/26 00:09:28;;;;;;;11.10;9.30;;;;;;;17.79;100.00;100643.11;107195;1244;74296;-65
2023/06/26 00:11:59;;;;;;;10.20;7.80;;;;;;;17.86;100.00;100639.80;107042;1245;62446;-67
2023/06/26 00:14:29;;;;;;;13.00;8.30;;;;;;;17.85;100.00;100638.43;107181;1244;60869;-67
2023/06/26 00:16:58;;;;;;;15.80;9.30;;;;;;;17.84;100.00;100632.55;107089;1245;64378;-67
2023/06/26 00:19:27;;;;;;;13.60;8.80;;;;;;;17.88;100.00;100631.61;107100;1252;63132;-65
2023/06/26 00:21:56;;;;;;;11.40;9.10;;;;;;;17.87;100.00;100631.88;107122;1244;62044;-66
2023/06/26 00:24:25;;;;;;;15.80;9.90;;;;;;;17.93;100.00;100625.62;107091;1243;74472;-67
2023/06/26 00:26:54;;;;;;;10.60;8.60;;;;;;;17.97;100.00;100623.64;107125;1243;72180;-66
2023/06/26 00:29:23;;;;;;;12.10;8.10;;;;;;;18.06;100.00;100620.77;107058;1251;70726;-73
2023/06/26 00:31:53;;;;;;;10.20;7.50;;;;;;;18.06;100.00;100621.59;107151;1244;73402;-68
2023/06/26 00:34:22;;;;;;;11.20;7.60;;;;;;;17.99;100.00;100618.66;107004;1245;62263;-66
2023/06/26 00:36:51;;;;;;;9.30;7.70;;;;;;;17.90;100.00;100618.23;107101;1244;60677;-66
2023/06/26 00:39:20;;;;;;;10.40;8.10;;;;;;;17.78;100.00;100621.08;107148;1242;73814;-66
2023/06/26 00:41:49;;;;;;;9.10;7.30;;;;;;;17.76;100.00;100617.89;107005;1250;72267;-68
2023/06/26 00:44:19;;;;;;;9.10;7.20;;;;;;;17.73;100.00;100615.14;107135;1244;70447;-68
2023/06/26 00:46:48;;;;;;;10.80;8.40;;;;;;;17.66;100.00;100615.94;107111;1244;74583;-67
2023/06/26 00:49:18;;;;;;;10.80;8.50;;;;;;;17.55;100.00;100613.65;107003;1248;59040;-66
2023/06/26 00:51:47;;;;;;;11.50;9.60;;;;;;;17.49;100.00;100616.23;106929;1244;61110;-66
2023/06/26 00:54:19;;;;;;;13.10;9.30;;;;;;;17.51;100.00;100614.30;107100;1247;74826;-65
2023/06/26 00:56:49;;;;;;;13.70;11.10;;;;;;;17.64;100.00;100609.93;107116;1245;61474;-68
2023/06/26 00:59:18;;;;;;;12.50;8.80;;;;;;;17.88;100.00;100608.15;107263;1245;59479;-67
2023/06/26 01:01:49;;;;;;;11.80;8.70;;;;;;;17.96;100.00;100609.91;107278;1243;73836;-67
2023/06/26 01:04:18;;;;;;;11.80;8.40;;;;;;;17.98;100.00;100607.27;107116;1245;61751;-68
2023/06/26 01:06:50;;;;;;;12.10;9.50;;;;;;;17.98;100.00;100604.15;107257;1245;60723;-69
2023/06/26 01:09:20;;;;;;;11.20;9.00;;;;;;;18.04;100.00;100604.17;107228;1244;73570;-67
2023/06/26 01:11:50;;;;;;;13.40;9.80;;;;;;;18.06;100.00;100596.61;107020;1244;71881;-67
2023/06/26 01:14:20;;;;;;;13.60;9.70;;;;;;;18.02;100.00;100596.80;107074;1248;59844;-66
2023/06/26 01:16:49;;;;;;;10.40;8.40;;;;;;;18.00;100.00;100597.42;107142;1244;73017;-66
2023/06/26 01:19:30;;;;;;;9.70;8.40;;;;;;;17.91;100.00;100600.84;107276;1251;62454;-67
2023/06/26 01:22:24;;;;;;;12.00;7.80;;;;;;;17.80;100.00;100598.45;107318;1245;59023;-66
2023/06/26 01:25:22;;;;;;;;;;;;;;;17.71;100.00;100597.39;107118;1243;73482;-66
2023/06/26 01:27:55;;;;;;;12.20;7.90;;;;;;;17.59;100.00;100599.91;107032;1245;72033;-67
2023/06/26 01:30:25;;;;;;;8.10;6.30;;;;;;;17.53;100.00;100596.67;107146;1244;60413;-67
2023/06/26 01:32:54;;;;;;;9.50;7.80;;;;;;;17.44;100.00;100595.48;106913;1248;73109;-67
2023/06/26 01:44:03;;;;;;;10.60;9.00;;;;;;;17.25;100.00;100590.75;104453;1276;599929;-65
2023/06/26 01:46:49;;;;;;;14.20;9.60;;;;;;;17.13;100.00;100593.52;106461;1254;57887;-66
2023/06/26 01:49:36;;;;;;;11.80;9.20;;;;;;;17.09;100.00;100589.75;106263;1257;59104;-65
2023/06/26 01:52:25;;;;;;;12.90;9.40;;;;;;;17.05;100.00;100591.73;106800;1249;60834;-65
2023/06/26 01:55:19;;;;;;;10.90;8.60;;;;;;;17.06;100.00;100590.23;106901;1248;71444;-67
2023/06/26 01:57:54;;;;;;;14.00;10.00;;;;;;;17.05;100.00;100592.30;106896;1255;338822;-65
2023/06/26 02:00:24;;;;;;;12.40;9.60;;;;;;;17.04;100.00;100595.13;106955;1251;73968;-64
2023/06/26 02:02:53;;;;;;;13.10;10.10;;;;;;;17.09;100.00;100596.04;107007;1248;59433;-64
2023/06/26 02:05:23;;;;;;;13.60;9.90;;;;;;;17.20;100.00;100596.17;107104;1247;61574;-65
2023/06/26 02:07:52;;;;;;;12.90;10.40;;;;;;;17.18;100.00;100592.84;107049;1248;61833;-66
2023/06/26 02:10:21;;;;;;;13.70;10.40;;;;;;;17.14;100.00;100586.05;106904;1251;61185;-66
2023/06/26 02:12:50;;;;;;;14.20;9.60;;;;;;;17.15;100.00;100587.02;107082;1247;59999;-65
2023/06/26 02:15:19;;;;;;;12.60;9.10;;;;;;;17.08;100.00;100588.25;107088;1248;62671;-70
2023/06/26 02:17:48;;;;;;;10.40;8.90;;;;;;;17.00;100.00;100588.04;107153;1247;58949;-67
2023/06/26 02:20:17;;;;;;;16.00;11.00;;;;;;;16.95;100.00;100583.06;107089;1248;61214;-64
2023/06/26 02:22:46;;;;;;;14.40;10.40;;;;;;;17.00;100.00;100588.93;107209;1248;73456;-64
2023/06/26 02:25:16;;;;;;;12.10;9.20;;;;;;;16.96;100.00;100589.96;107137;1247;72145;-65
2023/06/26 02:27:45;;;;;;;12.60;9.50;;;;;;;16.88;100.00;100589.58;107041;1257;60363;-64
2023/06/26 02:30:14;;;;;;;12.80;9.50;;;;;;;16.81;100.00;100590.81;107198;1244;63951;-69
2023/06/26 02:32:43;;;;;;;15.30;11.00;;;;;;;16.74;100.00;100587.30;107049;1254;58912;-65
2023/06/26 02:35:12;;;;;;;15.20;10.70;;;;;;;16.70;100.00;100592.59;107093;1248;61074;-67
2023/06/26 02:37:43;;;;;;;11.80;9.50;;;;;;;16.85;100.00;100588.48;107028;1248;63709;-66
2023/06/26 02:40:12;;;;;;;13.00;9.70;;;;;;;16.82;100.00;100593.34;107061;1244;71902;-64
2023/06/26 02:42:42;;;;;;;12.30;9.90;;;;;;;16.74;100.00;100589.06;107063;1254;71313;-66
2023/06/26 02:45:11;;;;;;;14.60;10.50;;;;;;;16.75;100.00;100588.79;107044;1256;73625;-64
2023/06/26 02:47:40;;;;;;;17.40;10.80;;;;;;;16.76;100.00;100586.80;107053;1249;62912;-66
2023/06/26 02:50:10;;;;;;;15.70;10.10;;;;;;;16.74;100.00;100585.07;107210;1255;62403;-66
2023/06/26 02:53:00;;;;;;;14.10;10.50;;;;;;;16.69;100.00;100585.27;107122;1249;62463;-68
2023/06/26 02:55:29;;;;;;;14.80;10.30;;;;;;;16.65;100.00;100586.52;107170;1248;62039;-67
2023/06/26 02:57:58;;;;;;;14.60;10.50;;;;;;;16.63;100.00;100588.02;107142;1247;71002;-68
2023/06/26 03:00:29;;;;;;;16.80;11.80;;;;;;;16.61;100.00;100583.84;107018;1248;74565;-68
2023/06/26 03:03:01;;;;;;;14.70;10.30;;;;;;;16.61;100.00;100582.71;107007;1248;58930;-66
2023/06/26 03:05:31;;;;;;;13.70;10.30;;;;;;;16.58;100.00;100582.54;106933;1249;58445;-66
2023/06/26 03:08:00;;;;;;;17.50;11.00;;;;;;;16.55;100.00;100584.89;106946;1259;61881;-65
2023/06/26 03:10:29;;;;;;;16.40;11.60;;;;;;;16.54;100.00;100588.04;106909;1258;62882;-65
2023/06/26 03:12:59;;;;;;;14.00;11.00;;;;;;;16.53;100.00;100589.15;107089;1248;59806;-65
2023/06/26 03:15:28;;;;;;;16.10;11.10;;;;;;;16.53;100.00;100590.80;107062;1248;63211;-66
2023/06/26 03:17:57;;;;;;;13.20;9.80;;;;;;;16.55;100.00;100591.84;106866;1248;58225;-66
2023/06/26 03:20:28;;;;;;;18.10;10.50;;;;;;;16.59;100.00;100591.18;107016;1248;59022;-65
2023/06/26 03:22:58;;;;;;;16.90;10.80;;;;;;;16.55;100.00;100589.00;106953;1259;63278;-65
2023/06/26 03:25:27;;;;;;;20.70;11.90;;;;;;;16.51;100.00;100586.21;107061;1259;72296;-65
2023/06/26 03:28:15;;;;;;;19.30;11.40;;;;;;;16.56;100.00;100589.90;107103;1254;70404;-66
2023/06/26 03:30:44;;;;;;;15.20;11.40;;;;;;;16.64;100.00;100587.56;106942;1251;63603;-66
2023/06/26 03:33:13;;;;;;;14.20;10.80;;;;;;;16.71;100.00;100585.98;107015;1247;61942;-64
2023/06/26 03:35:43;;;;;;;16.40;11.00;;;;;;;16.78;100.00;100585.27;106931;1259;62449;-65
2023/06/26 03:38:13;;;;;;;16.70;11.20;;;;;;;16.89;100.00;100586.08;107049;1248;63911;-66
2023/06/26 03:40:43;;;;;;;14.30;10.40;;;;;;;16.96;100.00;100586.66;106968;1247;71124;-66
2023/06/26 03:43:12;;;;;;;16.40;11.90;;;;;;;17.01;100.00;100588.64;107106;1246;71671;-66
2023/06/26 03:45:49;;;;;;;18.10;11.80;;;;;;;17.05;100.00;100586.63;106890;1248;74685;-66
2023/06/26 03:48:18;;;;;;;15.60;11.50;;;;;;;17.07;100.00;100585.69;107030;1248;58971;-69
2023/06/26 03:50:48;;;;;;;18.70;12.20;;;;;;;17.12;100.00;100585.55;106882;1250;59126;-67
2023/06/26 03:53:18;;;;;;;14.30;11.10;;;;;;;17.21;100.00;100588.10;106882;1247;72063;-65
2023/06/26 03:55:47;;;;;;;14.60;10.40;;;;;;;17.23;100.00;100589.70;107044;1259;72471;-65
2023/06/26 03:58:16;;;;;;;15.00;10.50;;;;;;;17.25;100.00;100590.44;107094;1259;59554;-64
2023/06/26 04:00:46;;;;;;;13.00;9.80;;;;;;;17.28;100.00;100591.86;107072;1248;62599;-67
2023/06/26 04:03:15;;;;;;;13.70;11.00;;;;;;;17.35;100.00;100588.85;106975;1249;61947;-65
2023/06/26 04:05:45;;;;;;;15.20;11.50;;;;;;;17.41;100.00;100587.29;106995;1251;58923;-66
2023/06/26 04:08:14;;;;;;;11.90;8.40;;;;;;;17.51;100.00;100582.41;107052;1247;61629;-64
2023/06/26 04:10:45;;;;;;;12.80;9.50;;;;;;;17.62;100.00;100579.02;107018;1247;70496;-65
2023/06/26 04:13:15;;;;;;;12.90;9.00;;;;;;;17.72;100.00;100583.44;107002;1248;60300;-65
2023/06/26 04:15:43;;;;;;;13.20;9.70;;;;;;;17.78;100.00;100577.25;106977;1248;73039;-65
2023/06/26 04:18:12;;;;;;;13.50;9.70;;;;;;;17.85;100.00;100585.20;107002;1249;62947;-63
2023/06/26 04:21:11;;;;;;;13.30;10.40;;;;;;;17.87;100.00;100582.59;107069;1248;62125;-65
2023/06/26 04:23:40;;;;;;;13.00;9.20;;;;;;;17.93;100.00;100580.10;106961;1247;62539;-65
2023/06/26 04:26:13;;;;;;;11.90;8.80;;;;;;;18.01;100.00;100579.68;106990;1254;71986;-65
2023/06/26 04:28:42;;;;;;;14.40;9.30;;;;;;;18.09;100.00;100574.81;106953;1248;69746;-67
2023/06/26 04:31:11;;;;;;;10.10;8.40;;;;;;;18.18;100.00;100579.29;106953;1251;62858;-66
2023/06/26 04:33:40;;;;;;;11.40;8.30;;;;;;;18.22;100.00;100580.63;106891;1248;59037;-67
2023/06/26 04:36:11;;;;;;;11.00;8.40;;;;;;;18.22;100.00;100583.43;107020;1259;57556;-67
2023/06/26 04:38:40;;;;;;;11.90;8.60;;;;;;;18.28;100.00;100585.98;106974;1247;61669;-67
2023/06/26 04:41:09;;;;;;;12.50;8.70;;;;;;;18.35;100.00;100589.26;107006;1249;60641;-67
2023/06/26 04:43:38;;;;;;;12.20;8.30;;;;;;;18.40;100.00;100584.63;106914;1250;59978;-66
2023/06/26 04:46:07;;;;;;;8.40;7.40;;;;;;;18.44;100.00;100582.98;106879;1249;63267;-66
2023/06/26 04:48:36;;;;;;;10.60;8.50;;;;;;;18.52;100.00;100585.16;106955;1250;59148;-67
2023/06/26 04:51:05;;;;;;;11.70;8.40;;;;;;;18.60;100.00;100584.27;107027;1248;60373;-68
2023/06/26 04:53:34;;;;;;;11.70;8.60;;;;;;;18.65;100.00;100580.05;106969;1248;74251;-68
2023/06/26 04:56:04;;;;;;;12.50;8.90;;;;;;;18.70;100.00;100578.83;106855;1248;72807;-66
2023/06/26 04:58:32;;;;;;;10.30;8.30;;;;;;;18.81;100.00;100575.81;106823;1248;71413;-66
2023/06/26 05:01:02;;;;;;;10.00;8.00;;;;;;;18.88;100.00;100574.34;106815;1248;73408;-69
2023/06/26 05:03:31;;;;;;;11.60;8.50;;;;;;;18.90;100.00;100569.52;106876;1248;58999;-70
2023/06/26 05:06:01;;;;;;;13.20;8.30;;;;;;;18.94;100.00;100572.35;107086;1246;60943;-69
2023/06/26 05:08:38;;;;;;;10.80;8.30;;;;;;;19.00;100.00;100576.38;106895;1248;73534;-70
2023/06/26 05:11:08;;;;;;;11.30;7.90;;;;;;;19.15;100.00;100578.46;106716;1251;71166;-70
2023/06/26 05:13:37;;;;;;;10.70;8.10;;;;;;;19.17;100.00;100581.89;106837;1259;70544;-70
2023/06/26 05:16:09;;;;;;;10.90;8.00;;;;;;;19.14;100.00;100579.52;106667;1246;73712;-71
2023/06/26 05:18:37;;;;;;;12.90;7.30;;;;;;;19.23;100.00;100583.08;106895;1248;63057;-71
2023/06/26 05:21:07;;;;;;;10.20;7.80;;;;;;;19.27;100.00;100585.61;106930;1247;61203;-70
2023/06/26 05:23:37;;;;;;;10.70;7.70;;;;;;;19.34;100.00;100587.77;107056;1251;62757;-70
2023/06/26 05:26:07;;;;;;;11.00;8.10;;;;;;;19.42;100.00;100588.11;107146;1247;72333;-71
2023/06/26 05:28:37;;;;;;;10.80;8.00;;;;;;;19.50;100.00;100588.71;107122;1247;70850;-70
2023/06/26 05:31:07;;;;;;;9.90;7.50;;;;;;;19.61;100.00;100589.08;107102;1248;63630;-69
2023/06/26 05:33:38;;;;;;;12.40;7.70;;;;;;;19.59;100.00;100594.42;107411;1248;62148;-71
2023/06/26 05:36:09;;;;;;;11.30;7.90;;;;;;;19.71;100.00;100596.44;107695;1248;60944;-71
2023/06/26 05:38:39;;;;;;;11.20;7.50;;;;;;;19.78;100.00;100593.08;107834;1249;61831;-71
2023/06/26 05:41:10;;;;;;;11.20;8.10;;;;;;;19.91;100.00;100590.46;107751;1249;60878;-72
2023/06/26 05:43:39;;;;;;;9.00;7.30;;;;;;;20.04;100.00;100588.39;107069;1248;70858;-66
2023/06/26 05:46:08;;;;;;;15.00;7.80;;;;;;;20.24;100.00;100592.50;106797;1247;73748;-66
2023/06/26 05:48:37;;;;;;;10.00;7.20;;;;;;;20.41;100.00;100585.57;106955;1248;62877;-68
2023/06/26 05:51:07;;;;;;;11.30;7.10;;;;;;;20.51;100.00;100582.45;106922;1248;57459;-68
2023/06/26 05:53:36;;;;;;;10.90;7.40;;;;;;;20.71;100.00;100588.12;106954;1247;71768;-66
2023/06/26 05:56:07;;;;;;;10.70;7.50;;;;;;;20.89;100.00;100586.48;106964;1248;71817;-66
2023/06/26 05:58:36;;;;;;;11.30;7.10;;;;;;;20.97;100.00;100592.45;106863;1248;70832;-65
2023/06/26 06:01:05;;;;;;;11.10;7.60;;;;;;;21.14;100.00;100592.95;106961;1248;62499;-64
2023/06/26 06:03:34;;;;;;;12.50;7.50;;;;;;;21.13;100.00;100592.33;106736;1249;57916;-65
2023/06/26 06:06:03;;;;;;;8.30;7.10;;;;;;;21.09;100.00;100585.77;106787;1259;58239;-65
2023/06/26 06:08:32;;;;;;;14.10;7.20;;;;;;;20.95;100.00;100588.16;106942;1247;72766;-65
2023/06/26 06:11:02;;;;;;;11.10;8.10;;;;;;;20.91;100.00;100589.33;106953;1247;71765;-64
2023/06/26 06:13:31;;;;;;;10.20;6.90;;;;;;;20.89;100.00;100594.98;106856;1248;70887;-66
2023/06/26 06:16:00;;;;;;;9.80;7.20;;;;;;;20.93;100.00;100589.20;106904;1247;73336;-65
2023/06/26 06:18:29;;;;;;;14.20;6.80;;;;;;;20.81;100.00;100592.44;106840;1249;59051;-67
2023/06/26 06:20:58;;;;;;;8.60;7.20;;;;;;;20.70;100.00;100595.86;107008;1248;58992;-66
2023/06/26 06:23:27;;;;;;;11.40;7.00;;;;;;;20.90;100.00;100597.94;106823;1248;73548;-68
2023/06/26 06:25:56;;;;;;;11.70;7.20;;;;;;;21.01;100.00;100594.84;106919;1248;72759;-67
2023/06/26 06:28:26;;;;;;;8.40;6.60;;;;;;;21.11;100.00;100595.27;106909;1246;62008;-66
2023/06/26 06:30:55;;;;;;;9.20;6.70;;;;;;;21.11;100.00;100593.64;106772;1247;73375;-67
2023/06/26 06:33:24;;;;;;;9.80;7.30;;;;;;;21.06;100.00;100593.29;106826;1259;63722;-68
2023/06/26 06:35:53;;;;;;;10.90;6.80;;;;;;;21.19;100.00;100596.56;106862;1254;59108;-67
2023/06/26 06:38:22;;;;;;;10.00;7.10;;;;;;;21.18;100.00;100597.09;106787;1251;63203;-66
2023/06/26 06:40:51;;;;;;;11.80;6.40;;;;;;;21.19;100.00;100594.98;106796;1251;61021;-65
2023/06/26 06:43:20;;;;;;;11.90;7.60;;;;;;;21.29;100.00;100595.59;106974;1248;60300;-65
2023/06/26 06:45:49;;;;;;;8.80;6.60;;;;;;;21.26;100.00;100592.77;106853;1258;63255;-65
2023/06/26 06:48:18;;;;;;;9.60;7.00;;;;;;;21.46;100.00;100596.69;106824;1249;59048;-65
2023/06/26 06:50:48;;;;;;;14.60;6.80;;;;;;;21.59;100.00;100596.56;106785;1247;61027;-65
2023/06/26 06:53:20;;;;;;;15.10;7.50;;;;;;;21.57;100.00;100596.59;107081;1244;74100;-66
2023/06/26 06:55:49;;;;;;;19.40;7.90;;;;;;;21.86;100.00;100596.13;107019;1244;71782;-65
2023/06/26 06:58:19;;;;;;;9.10;6.90;;;;;;;22.03;100.00;100593.36;106907;1251;71930;-65
2023/06/26 07:00:51;;;;;;;12.50;7.00;;;;;;;22.06;99.55;100597.45;107086;1245;63589;-65
2023/06/26 07:03:21;;;;;;;9.40;6.50;;;;;;;22.04;99.23;100593.93;107135;1243;62872;-68
2023/06/26 07:05:50;;;;;;;8.10;6.70;;;;;;;22.07;98.88;100593.91;107181;1247;59038;-65
2023/06/26 07:08:19;;;;;;;9.70;6.90;;;;;;;22.01;98.84;100595.14;107221;1245;62312;-65
2023/06/26 07:10:48;;;;;;;8.40;7.10;;;;;;;21.93;99.83;100595.58;107162;1245;60904;-65
2023/06/26 07:13:17;;;;;;;9.80;7.10;;;;;;;22.08;99.63;100598.06;107146;1245;60345;-65
2023/06/26 07:15:47;;;;;;;13.80;8.60;;;;;;;22.31;98.83;100596.98;107195;1245;62735;-65
2023/06/26 07:18:17;;;;;;;9.00;6.90;;;;;;;22.51;98.31;100596.73;107180;1245;62097;-67
2023/06/26 07:20:46;;;;;;;9.30;6.20;;;;;;;22.60;95.71;100598.56;108660;1245;60934;-64
2023/06/26 07:23:15;;;;;;;8.70;5.40;;;;;;;22.39;93.56;100594.28;107153;1249;73876;-65
2023/06/26 07:25:45;;;;;;;9.70;6.60;;;;;;;22.21;94.58;100599.34;107160;1244;73545;-64
2023/06/26 07:28:14;;;;;;;9.00;5.90;;;;;;;22.20;94.50;100597.05;108106;1244;70200;-65
2023/06/26 07:30:43;;;;;;;8.70;5.90;;;;;;;22.42;92.53;100595.29;107210;1245;62312;-66
2023/06/26 07:33:12;;;;;;;7.70;5.60;;;;;;;22.62;89.03;100593.30;107271;1254;61260;-66
2023/06/26 07:35:41;;;;;;;10.80;6.70;;;;;;;22.67;88.09;100598.21;107239;1245;59437;-66
2023/06/26 07:38:10;;;;;;;8.90;6.50;;;;;;;22.66;88.42;100593.37;107182;1245;63223;-67
2023/06/26 07:40:39;;;;;;;11.10;6.90;;;;;;;22.83;88.43;100586.55;107104;1244;72299;-66
2023/06/26 07:43:09;;;;;;;9.30;5.40;;;;;;;23.05;88.15;100589.99;107215;1245;72092;-66
2023/06/26 07:45:38;;;;;;;6.90;5.00;;;;;;;23.37;85.45;100585.96;106892;1247;63191;-67
2023/06/26 07:48:08;;;;;;;8.30;5.20;;;;;;;23.52;83.17;100584.42;106997;1248;59553;-68
2023/06/26 07:50:38;;;;;;;6.80;5.00;;;;;;;23.51;81.62;100588.29;106847;1243;61261;-67
2023/06/26 07:53:08;;;;;;;7.00;5.40;;;;;;;23.66;80.76;100585.78;106987;1245;73097;-65
2023/06/26 07:55:37;;;;;;;9.20;5.30;;;;;;;23.71;81.61;100586.14;106954;1248;73669;-66
2023/06/26 07:58:08;;;;;;;10.40;6.20;;;;;;;23.73;80.76;100593.33;107018;1245;60442;-65
2023/06/26 08:00:37;;;;;;;7.70;5.60;;;;;;;23.52;81.06;100592.42;106974;1244;73634;-65
2023/06/26 08:03:07;;;;;;;7.50;5.60;;;;;;;23.63;81.53;100587.13;106957;1244;58703;-64
2023/06/26 08:05:45;;;;;;;7.80;5.50;;;;;;;23.73;81.48;100587.08;106963;1251;61618;-66
2023/06/26 08:08:15;;;;;;;7.70;5.00;;;;;;;23.86;80.82;100582.38;106966;1248;63026;-65
2023/06/26 08:10:44;;;;;;;6.50;4.90;;;;;;;24.03;79.38;100584.92;107164;1245;60673;-67
2023/06/26 08:13:13;;;;;;;8.60;5.60;;;;;;;24.21;78.54;100580.89;107166;1243;59991;-68
2023/06/26 08:15:43;;;;;;;6.80;5.00;;;;;;;24.37;74.63;100581.80;107140;1248;65841;-70
2023/06/26 08:18:12;;;;;;;8.90;5.30;;;;;;;24.49;70.56;100574.54;107157;1245;60803;-71
2023/06/26 08:20:41;;;;;;;8.60;5.40;;;;;;;24.76;69.58;100574.61;107163;1255;60994;-66
2023/06/26 08:23:10;;;;;;;6.40;5.20;;;;;;;24.70;67.84;100573.77;107166;1247;65321;-68
2023/06/26 08:25:39;;;;;;;8.50;5.00;;;;;;;24.51;67.66;100571.00;107219;1246;73517;-69
2023/06/26 08:28:09;;;;;;;7.30;5.20;;;;;;;24.52;68.18;100569.89;107126;1248;69774;-68
2023/06/26 08:30:38;;;;;;;6.80;4.40;;;;;;;24.56;66.71;100572.77;107000;1247;72932;-68
2023/06/26 08:33:12;;;;;;;8.00;4.70;;;;;;;24.78;64.30;100575.10;107065;1246;61349;-68
2023/06/26 08:35:41;;;;;;;6.10;4.50;;;;;;;24.87;63.53;100578.87;107114;1244;59982;-66
2023/06/26 08:38:10;;;;;;;7.50;4.10;;;;;;;24.99;62.37;100569.03;107124;1245;71719;-67
2023/06/26 08:40:39;;;;;;;5.50;4.20;;;;;;;25.15;61.02;100573.05;107243;1245;61688;-65
2023/06/26 08:43:08;;;;;;;7.10;4.70;;;;;;;25.15;60.13;100568.89;107198;1252;62083;-66
2023/06/26 08:45:37;;;;;;;5.20;3.90;;;;;;;25.20;60.00;100567.16;107080;1244;74214;-68
2023/06/26 08:48:10;;;;;;;6.20;4.10;;;;;;;25.36;59.26;100568.67;107040;1245;59078;-66
2023/06/26 08:50:40;;;;;;;5.60;4.00;;;;;;;25.41;57.85;100574.00;106894;1247;61526;-67
2023/06/26 08:53:40;;;;;;;7.80;3.80;;;;;;;25.32;56.57;100567.33;106878;1247;73900;-65
2023/06/26 08:56:12;;;;;;;6.30;4.20;;;;;;;25.24;55.97;100569.79;107098;1247;69766;-64
2023/06/26 08:58:41;;;;;;;5.50;4.00;;;;;;;25.31;55.96;100577.20;107121;1248;60488;-67
2023/06/26 09:01:12;;;;;;;5.10;3.90;;;;;;;25.48;55.35;100572.42;107014;1247;73737;-65
2023/06/26 09:03:42;;;;;;;7.50;3.80;;;;;;;25.56;54.14;100560.98;107033;1248;59086;-68
2023/06/26 09:06:11;;;;;;;5.90;3.50;;;;;;;25.69;53.51;100559.15;107006;1248;59170;-67
2023/06/26 09:08:41;;;;;;;5.60;3.50;;;;;;;25.88;53.55;100556.33;107087;1247;73943;-66
2023/06/26 09:11:10;;;;;;;7.40;4.40;;;;;;;25.96;53.66;100553.55;107056;1255;72017;-69
2023/06/26 09:13:40;;;;;;;6.70;3.80;;;;;;;25.87;53.00;100553.60;107185;1245;70087;-64
2023/06/26 09:16:09;;;;;;;4.90;3.30;;;;;;;25.83;50.98;100558.48;107143;1247;63608;-65
2023/06/26 09:18:44;;;;;;;8.60;3.50;;;;;;;25.89;50.34;100555.98;107166;1247;59073;-65
2023/06/26 09:21:14;;;;;;;6.70;3.30;;;;;;;25.98;49.98;100549.75;107160;1246;58725;-65
2023/06/26 09:23:43;;;;;;;8.40;3.50;;;;;;;26.16;50.06;100546.95;107177;1245;62991;-65
2023/06/26 09:26:14;;;;;;;4.90;3.60;;;;;;;26.35;49.59;100550.98;107147;1248;61653;-65
2023/06/26 09:28:43;;;;;;;5.90;3.80;;;;;;;26.31;48.40;100554.66;107072;1255;59276;-66
2023/06/26 09:31:12;;;;;;;9.00;3.80;;;;;;;26.37;48.59;100546.31;107228;1245;73830;-65
2023/06/26 09:33:48;;;;;;;5.10;4.00;;;;;;;26.56;48.69;100544.60;107117;1255;62744;-65
2023/06/26 09:36:24;;;;;;;5.80;3.80;;;;;;;26.60;49.71;100545.47;107150;1243;60219;-65
2023/06/26 09:38:53;;;;;;;5.80;3.70;;;;;;;26.58;50.82;100541.73;107265;1254;62816;-66
2023/06/26 09:41:22;;;;;;;9.90;3.80;;;;;;;26.45;50.93;100541.77;107236;1245;61253;-66
2023/06/26 09:43:51;;;;;;;5.50;3.60;;;;;;;26.38;50.20;100532.30;107120;1248;70123;-64
2023/06/26 09:46:23;;;;;;;4.80;3.30;;;;;;;26.15;50.19;100537.37;107098;1248;72689;-64
2023/06/26 09:49:06;;;;;;;;;;;;;;;26.29;48.34;100538.41;107113;1248;62064;-65
2023/06/26 09:51:38;;;;;;;5.10;3.00;;;;;;;26.39;48.01;100538.42;107074;1248;59049;-67
2023/06/26 09:54:09;;;;;;;5.90;3.30;;;;;;;26.71;48.09;100539.40;107192;1256;64947;-66
2023/06/26 09:56:38;;;;;;;4.70;3.50;;;;;;;26.93;46.45;100535.30;107196;1244;70740;-65
2023/06/26 09:59:07;;;;;;;4.40;3.10;;;;;;;26.99;46.45;100535.98;107158;1245;60781;-66
2023/06/26 10:01:41;;;;;;;4.80;3.20;;;;;;;27.15;46.43;100528.14;107217;1246;65335;-65
2023/06/26 10:04:11;;;;;;;5.40;3.20;;;;;;;27.28;46.77;100533.56;107061;1244;58675;-66
2023/06/26 10:06:52;;;;;;;5.30;3.30;;;;;;;27.04;47.57;100533.41;107081;1247;59178;-65
2023/06/26 10:09:23;;;;;;;4.60;2.90;;;;;;;26.82;47.77;100534.01;107188;1253;64377;-68
2023/06/26 10:12:06;;;;;;;6.20;3.20;;;;;;;26.76;47.94;100533.77;107065;1247;72309;-66
2023/06/26 10:14:37;;;;;;;4.90;2.90;;;;;;;26.89;47.59;100528.29;107247;1255;59698;-66
2023/06/26 10:17:10;;;;;;;5.50;3.10;;;;;;;27.07;47.57;100525.39;107253;1245;63283;-66
2023/06/26 10:19:43;;;;;;;5.40;3.20;;;;;;;27.21;46.70;100519.44;107244;1244;58975;-66
2023/06/26 10:22:17;;;;;;;4.40;3.20;;;;;;;27.24;46.29;100521.70;107111;1246;58244;-66
2023/06/26 10:24:49;;;;;;;4.50;3.10;;;;;;;27.22;45.98;100519.83;107245;1256;65751;-65
2023/06/26 10:27:21;;;;;;;5.20;3.40;;;;;;;27.36;45.99;100524.57;107230;1244;72528;-64
2023/06/26 10:29:59;;;;;;;5.00;3.00;;;;;;;27.51;45.36;100517.30;107250;1245;59636;-64
2023/06/26 10:32:29;;;;;;;4.20;3.10;;;;;;;27.50;45.28;100516.91;107252;1245;73034;-70
2023/06/26 10:34:58;;;;;;;7.70;3.10;;;;;;;27.84;45.46;100511.16;107322;1247;59051;-65
2023/06/26 10:37:48;;;;;;;4.00;3.00;;;;;;;28.28;44.98;100516.16;107129;1248;59464;-67
2023/06/26 10:40:28;;;;;;;3.70;2.90;;;;;;;28.28;45.24;100505.66;107314;1255;62178;-66
2023/06/26 10:43:12;;;;;;;6.90;3.20;;;;;;;28.19;45.46;100510.18;107209;1248;61998;-72
2023/06/26 10:45:54;;;;;;;4.10;3.00;;;;;;;27.92;45.92;100523.29;107155;1248;59354;-65
2023/06/26 10:48:29;;;;;;;6.80;3.50;;;;;;;28.18;45.53;100513.74;107211;1245;62672;-65
2023/06/26 10:51:14;;;;;;;5.60;3.60;;;;;;;28.36;45.14;100506.16;106996;1249;59015;-70
2023/06/26 10:53:45;;;;;;;4.40;2.70;;;;;;;28.69;44.67;100503.80;107202;1246;61245;-64
2023/06/26 10:56:15;;;;;;;10.90;3.10;;;;;;;29.19;41.89;100497.34;107203;1246;62875;-67
2023/06/26 10:58:46;;;;;;;4.30;2.90;;;;;;;29.29;41.19;100497.71;107160;1248;71496;-67
2023/06/26 11:01:26;;;;;;;6.30;2.70;;;;;;;29.04;40.67;100500.62;107361;1255;61366;-65
2023/06/26 11:03:58;;;;;;;4.30;2.50;;;;;;;29.03;38.65;100501.23;107185;1244;63110;-65
2023/06/26 11:06:28;;;;;;;3.70;2.40;;;;;;;29.09;37.53;100505.63;107377;1255;58309;-65
2023/06/26 11:09:05;;;;;;;4.50;2.80;;;;;;;29.44;36.35;100501.30;107163;1244;61449;-67
2023/06/26 11:11:53;;;;;;;6.30;3.10;;;;;;;29.80;36.87;100495.59;107370;1245;62417;-67
2023/06/26 11:14:25;;;;;;;4.30;2.60;;;;;;;29.88;35.28;100489.39;107367;1251;72178;-68
2023/06/26 11:16:57;;;;;;;5.70;3.10;;;;;;;29.92;36.38;100490.10;107306;1246;70122;-67
2023/06/26 11:19:28;;;;;;;6.50;2.70;;;;;;;30.16;37.69;100495.84;107268;1244;62161;-69
2023/06/26 11:22:04;;;;;;;5.30;2.90;;;;;;;30.01;38.88;100495.55;107327;1244;59056;-64
2023/06/26 11:24:34;;;;;;;4.70;3.20;;;;;;;29.60;40.05;100497.10;107324;1243;61042;-66
2023/06/26 11:27:04;;;;;;;5.00;2.80;;;;;;;29.70;39.96;100494.35;107313;1244;73893;-66
2023/06/26 11:29:34;;;;;;;5.10;2.70;;;;;;;29.97;37.50;100486.20;107249;1255;72904;-64
2023/06/26 11:32:05;;;;;;;3.50;3.00;;;;;;;29.83;37.33;100491.86;107382;1245;69750;-65
2023/06/26 11:34:35;;;;;;;4.30;2.70;;;;;;;29.23;38.30;100494.45;107130;1245;74238;-67